createdAt,value
2018-05-13T00:00:57.573Z,17.07
2018-05-13T00:03:25.153Z,17.90
2018-05-13T00:05:52.788Z,17.13
2018-05-13T00:08:20.351Z,17.60
2018-05-13T00:10:47.965Z,17.97
2018-05-13T00:13:16.329Z,18.43
2018-05-13T00:15:43.920Z,18.90
2018-05-13T00:18:12.265Z,18.67
2018-05-13T00:20:39.851Z,19.33
2018-05-13T00:23:07.434Z,19.50
2018-05-13T00:25:35.011Z,20.30
2018-05-13T00:28:02.604Z,19.80
2018-05-13T00:30:30.206Z,19.37
2018-05-13T00:32:57.846Z,20.40
2018-05-13T00:35:25.423Z,20.43
2018-05-13T00:37:53.727Z,19.57
2018-05-13T00:40:21.529Z,19.80
2018-05-13T00:42:49.109Z,19.60
2018-05-13T00:45:16.737Z,19.80
2018-05-13T00:47:44.329Z,19.40
2018-05-13T00:50:11.903Z,19.40
2018-05-13T00:52:39.480Z,19.63
2018-05-13T00:55:07.113Z,20.80
2018-05-13T00:57:34.697Z,20.47
2018-05-13T01:00:02.275Z,20.43
2018-05-13T01:02:29.909Z,21.30
2018-05-13T01:04:57.503Z,20.97
2018-05-13T01:07:25.113Z,21.13
2018-05-13T01:09:53.623Z,21.20
2018-05-13T01:12:21.211Z,20.17
2018-05-13T01:14:49.556Z,20.50
2018-05-13T01:17:17.913Z,20.70
2018-05-13T01:19:45.530Z,19.97
2018-05-13T01:22:13.113Z,19.67
2018-05-13T01:24:40.692Z,20.37
2018-05-13T01:27:08.338Z,19.90
2018-05-13T01:29:35.954Z,20.87
2018-05-13T01:32:03.604Z,19.97
2018-05-13T01:34:31.217Z,21.40
2018-05-13T01:36:58.807Z,21.07
2018-05-13T01:39:26.391Z,21.93
2018-05-13T01:41:53.969Z,21.90
2018-05-13T01:44:21.613Z,22.10
2018-05-13T01:46:49.950Z,22.77
2018-05-13T01:49:18.299Z,22.23
2018-05-13T01:51:45.982Z,22.33
2018-05-13T01:54:15.110Z,22.07
2018-05-13T01:56:42.741Z,22.93
2018-05-13T01:59:11.138Z,23.27
2018-05-13T02:01:38.740Z,23.47
2018-05-13T02:04:06.314Z,23.37
2018-05-13T02:06:33.884Z,23.23
2018-05-13T02:09:01.469Z,23.97
2018-05-13T02:11:29.071Z,23.90
2018-05-13T02:13:56.739Z,24.20
2018-05-13T02:16:24.341Z,24.43
2018-05-13T02:18:51.961Z,23.27
2018-05-13T02:21:20.321Z,23.93
2018-05-13T02:23:47.917Z,24.13
2018-05-13T02:26:16.281Z,24.10
2018-05-13T02:28:44.709Z,24.43
2018-05-13T02:31:12.617Z,22.87
2018-05-13T02:33:40.205Z,22.83
2018-05-13T02:36:07.810Z,22.40
2018-05-13T02:38:35.376Z,22.93
2018-05-13T02:41:02.992Z,22.27
2018-05-13T02:43:30.580Z,22.93
2018-05-13T02:45:58.918Z,22.97
2018-05-13T02:48:26.492Z,22.60
2018-05-13T02:50:54.099Z,23.30
2018-05-13T02:53:21.720Z,23.53
2018-05-13T02:55:49.301Z,23.90
2018-05-13T02:58:16.905Z,23.37
2018-05-13T03:00:44.524Z,23.77
2018-05-13T03:03:12.925Z,24.77
2018-05-13T03:05:40.524Z,24.10
2018-05-13T03:08:08.171Z,23.93
2018-05-13T03:10:35.770Z,24.83
2018-05-13T03:13:04.097Z,25.00
2018-05-13T03:15:31.736Z,24.37
2018-05-13T03:17:59.778Z,25.27
2018-05-13T03:20:28.846Z,25.63
2018-05-13T03:22:57.229Z,25.23
2018-05-13T03:25:24.826Z,24.90
2018-05-13T03:27:52.416Z,25.13
2018-05-13T03:30:20.017Z,25.00
2018-05-13T03:32:48.416Z,25.97
2018-05-13T03:35:16.779Z,25.57
2018-05-13T03:37:44.411Z,25.70
2018-05-13T03:40:12.041Z,25.43
2018-05-13T03:42:39.781Z,25.43
2018-05-13T03:45:07.383Z,25.27
2018-05-13T03:47:34.985Z,25.87
2018-05-13T03:50:02.567Z,25.70
2018-05-13T03:52:31.631Z,26.13
2018-05-13T03:54:59.217Z,25.93
2018-05-13T03:57:26.790Z,26.03
2018-05-13T03:59:54.429Z,26.03
2018-05-13T04:02:22.056Z,25.73
2018-05-13T04:04:50.473Z,25.43
2018-05-13T04:07:18.062Z,26.10
2018-05-13T04:09:57.478Z,26.30
2018-05-13T04:12:36.914Z,27.00
2018-05-13T04:18:11.285Z,26.40
2018-05-13T04:20:39.659Z,27.23
2018-05-13T04:23:07.283Z,28.23
2018-05-13T04:25:34.877Z,27.23
2018-05-13T04:28:02.472Z,26.90
2018-05-13T04:30:30.833Z,26.43
2018-05-13T04:32:59.231Z,26.80
2018-05-13T04:35:27.746Z,26.20
2018-05-13T04:37:55.345Z,27.47
2018-05-13T04:40:22.961Z,26.20
2018-05-13T04:42:51.335Z,26.77
2018-05-13T04:45:20.607Z,25.60
2018-05-13T04:47:48.220Z,25.80
2018-05-13T04:50:15.825Z,25.47
2018-05-13T04:52:43.432Z,25.10
2018-05-13T04:55:11.775Z,26.07
2018-05-13T04:57:39.432Z,25.70
2018-05-13T05:00:07.008Z,26.53
2018-05-13T05:02:34.633Z,28.53
2018-05-13T05:05:02.280Z,26.50
2018-05-13T05:07:30.670Z,28.23
2018-05-13T05:09:59.091Z,28.80
2018-05-13T05:12:26.722Z,28.77
2018-05-13T05:14:55.083Z,28.63
2018-05-13T05:17:22.678Z,29.57
2018-05-13T05:19:50.274Z,29.13
2018-05-13T05:22:17.935Z,29.73
2018-05-13T05:24:45.601Z,29.13
2018-05-13T05:27:13.195Z,31.10
2018-05-13T05:29:40.812Z,31.20
2018-05-13T05:32:08.433Z,30.93
2018-05-13T05:34:36.041Z,32.17
2018-05-13T05:37:03.633Z,33.03
2018-05-13T05:39:32.046Z,33.60
2018-05-13T05:41:59.680Z,33.90
2018-05-13T05:44:27.254Z,33.43
2018-05-13T05:46:54.844Z,34.87
2018-05-13T05:49:23.251Z,34.03
2018-05-13T05:51:51.602Z,33.57
2018-05-13T05:54:19.217Z,34.50
2018-05-13T05:56:46.810Z,35.10
2018-05-13T05:59:15.262Z,34.23
2018-05-13T06:01:43.609Z,35.63
2018-05-13T06:04:11.221Z,36.30
2018-05-13T06:06:38.786Z,38.13
2018-05-13T06:09:06.378Z,39.47
2018-05-13T06:11:34.027Z,41.20
2018-05-13T06:14:02.359Z,43.47
2018-05-13T06:16:29.915Z,43.23
2018-05-13T06:18:58.929Z,42.70
2018-05-13T06:21:26.529Z,42.67
2018-05-13T06:23:54.118Z,43.77
2018-05-13T06:26:21.732Z,42.77
2018-05-13T06:28:50.137Z,41.90
2018-05-13T06:31:17.722Z,42.50
2018-05-13T06:33:45.297Z,43.37
2018-05-13T06:36:12.884Z,42.30
2018-05-13T06:38:40.488Z,40.80
2018-05-13T06:41:08.874Z,41.13
2018-05-13T06:43:37.251Z,39.77
2018-05-13T06:46:05.605Z,39.00
2018-05-13T06:48:33.218Z,38.67
2018-05-13T06:51:00.933Z,38.50
2018-05-13T06:53:29.225Z,38.20
2018-05-13T06:55:56.825Z,38.70
2018-05-13T06:58:24.459Z,37.93
2018-05-13T07:00:52.040Z,36.70
2018-05-13T07:03:20.371Z,36.90
2018-05-13T07:05:48.045Z,35.57
2018-05-13T07:08:15.620Z,38.07
2018-05-13T07:10:43.200Z,36.73
2018-05-13T07:13:10.810Z,36.67
2018-05-13T07:15:38.432Z,35.70
2018-05-13T07:18:06.047Z,35.50
2018-05-13T07:20:33.617Z,35.90
2018-05-13T07:23:01.369Z,35.37
2018-05-13T07:25:29.032Z,35.30
2018-05-13T07:27:56.615Z,35.27
2018-05-13T07:30:25.238Z,35.17
2018-05-13T07:32:52.841Z,35.63
2018-05-13T07:35:21.246Z,35.07
2018-05-13T07:37:48.851Z,34.57
2018-05-13T07:40:16.456Z,35.50
2018-05-13T07:42:44.792Z,35.50
2018-05-13T07:45:12.370Z,36.00
2018-05-13T07:47:39.932Z,35.37
2018-05-13T07:50:07.530Z,36.27
2018-05-13T07:52:35.884Z,36.07
2018-05-13T07:55:04.140Z,35.40
2018-05-13T07:57:31.720Z,36.43
2018-05-13T07:59:59.309Z,35.60
2018-05-13T08:02:27.694Z,36.00
2018-05-13T08:04:55.243Z,35.90
2018-05-13T08:07:22.893Z,36.23
2018-05-13T08:09:50.499Z,35.50
2018-05-13T08:12:18.863Z,36.97
2018-05-13T08:14:46.436Z,36.20
2018-05-13T08:17:14.853Z,36.33
2018-05-13T08:19:42.363Z,35.70
2018-05-13T08:22:09.963Z,35.17
2018-05-13T08:24:37.550Z,36.30
2018-05-13T08:27:05.161Z,37.37
2018-05-13T08:29:32.767Z,36.43
2018-05-13T08:32:01.223Z,38.07
2018-05-13T08:34:28.848Z,39.57
2018-05-13T08:36:56.426Z,39.53
2018-05-13T08:39:24.064Z,40.43
2018-05-13T08:41:51.713Z,40.37
2018-05-13T08:44:19.292Z,39.57
2018-05-13T08:46:46.888Z,41.00
2018-05-13T08:49:14.494Z,40.07
2018-05-13T08:51:42.143Z,41.07
2018-05-13T08:54:10.708Z,39.67
2018-05-13T08:56:38.305Z,40.57
2018-05-13T08:59:06.706Z,39.83
2018-05-13T09:01:35.055Z,40.27
2018-05-13T09:04:02.695Z,39.37
2018-05-13T09:06:31.031Z,38.60
2018-05-13T09:08:59.431Z,38.63
2018-05-13T09:11:27.017Z,38.43
2018-05-13T09:13:54.625Z,40.80
2018-05-13T09:16:22.221Z,39.90
2018-05-13T09:18:51.186Z,38.93
2018-05-13T09:21:19.622Z,39.20
2018-05-13T09:23:47.210Z,38.73
2018-05-13T09:26:14.794Z,38.90
2018-05-13T09:28:43.317Z,39.93
2018-05-13T09:31:11.688Z,38.97
2018-05-13T09:33:40.043Z,38.07
2018-05-13T09:36:07.667Z,37.33
2018-05-13T09:38:35.259Z,38.43
2018-05-13T09:41:02.889Z,38.53
2018-05-13T09:43:31.757Z,39.83
2018-05-13T09:45:59.374Z,41.33
2018-05-13T09:48:27.068Z,39.23
2018-05-13T09:50:54.647Z,39.80
2018-05-13T09:53:22.280Z,39.77
2018-05-13T09:55:49.863Z,39.77
2018-05-13T09:58:17.464Z,41.07
2018-05-13T10:00:45.063Z,41.53
2018-05-13T10:03:12.643Z,42.03
2018-05-13T10:05:40.228Z,41.33
2018-05-13T10:08:08.588Z,39.13
2018-05-13T10:10:36.392Z,40.07
2018-05-13T10:13:03.998Z,40.10
2018-05-13T10:15:31.591Z,37.23
2018-05-13T10:17:59.166Z,38.40
2018-05-13T10:20:26.772Z,38.80
2018-05-13T10:22:55.132Z,39.40
2018-05-13T10:25:22.783Z,39.07
2018-05-13T10:27:50.367Z,39.63
2018-05-13T10:30:18.065Z,39.33
2018-05-13T10:32:46.415Z,39.80
2018-05-13T10:35:13.986Z,38.83
2018-05-13T10:37:42.338Z,38.57
2018-05-13T10:40:09.950Z,35.63
2018-05-13T10:42:38.319Z,34.90
2018-05-13T10:45:06.702Z,37.03
2018-05-13T10:47:35.705Z,35.60
2018-05-13T10:50:05.356Z,37.30
2018-05-13T10:52:32.986Z,35.30
2018-05-13T10:55:01.400Z,36.37
2018-05-13T10:57:29.042Z,34.20
2018-05-13T10:59:57.417Z,34.87
2018-05-13T11:02:25.791Z,33.83
2018-05-13T11:04:54.136Z,34.10
2018-05-13T11:07:21.764Z,33.77
2018-05-13T11:09:49.361Z,34.23
2018-05-13T11:12:16.943Z,33.97
2018-05-13T11:14:44.572Z,34.67
2018-05-13T11:17:12.193Z,34.80
2018-05-13T11:19:40.580Z,33.43
2018-05-13T11:22:09.016Z,33.97
2018-05-13T11:24:36.600Z,33.47
2018-05-13T11:27:04.243Z,33.10
2018-05-13T11:29:31.841Z,32.60
2018-05-13T11:32:00.350Z,34.50
2018-05-13T11:34:28.776Z,32.97
2018-05-13T11:36:56.396Z,34.00
2018-05-13T11:39:24.008Z,32.53
2018-05-13T11:41:51.625Z,32.20
2018-05-13T11:44:19.239Z,33.87
2018-05-13T11:46:46.920Z,33.77
2018-05-13T11:49:14.478Z,33.23
2018-05-13T11:51:42.171Z,35.10
2018-05-13T11:54:09.870Z,33.03
2018-05-13T11:56:37.520Z,34.23
2018-05-13T11:59:05.255Z,34.43
2018-05-13T12:01:32.862Z,33.30
2018-05-13T12:04:01.237Z,33.23
2018-05-13T12:06:28.865Z,32.03
2018-05-13T12:08:56.456Z,34.37
2018-05-13T12:11:24.066Z,34.70
2018-05-13T12:13:51.663Z,34.90
2018-05-13T12:16:19.286Z,34.53
2018-05-13T12:18:47.652Z,32.97
2018-05-13T12:21:15.246Z,34.77
2018-05-13T12:23:43.847Z,33.27
2018-05-13T12:26:11.462Z,34.00
2018-05-13T12:28:39.087Z,34.03
2018-05-13T12:31:06.681Z,34.93
2018-05-13T12:33:34.296Z,34.83
2018-05-13T12:36:01.929Z,34.47
2018-05-13T12:38:30.310Z,33.50
2018-05-13T12:40:57.916Z,34.90
2018-05-13T12:43:26.485Z,34.17
2018-05-13T12:45:54.859Z,35.17
2018-05-13T12:48:22.437Z,32.87
2018-05-13T12:50:50.129Z,33.37
2018-05-13T12:53:17.798Z,33.47
2018-05-13T12:55:45.399Z,34.13
2018-05-13T12:58:13.092Z,33.57
2018-05-13T13:00:41.529Z,33.17
2018-05-13T13:03:09.134Z,31.77
2018-05-13T13:05:36.725Z,34.07
2018-05-13T13:08:04.328Z,32.00
2018-05-13T13:10:31.920Z,34.13
2018-05-13T13:12:59.538Z,32.40
2018-05-13T13:15:27.166Z,34.07
2018-05-13T13:17:54.742Z,33.43
2018-05-13T13:20:22.345Z,31.97
2018-05-13T13:22:50.015Z,33.33
2018-05-13T13:25:17.680Z,33.60
2018-05-13T13:27:45.262Z,33.83
2018-05-13T13:30:12.863Z,32.53
2018-05-13T13:32:41.293Z,34.07
2018-05-13T13:35:08.931Z,34.27
2018-05-13T13:37:37.291Z,33.70
2018-05-13T13:40:04.890Z,34.70
2018-05-13T13:42:32.503Z,35.30
2018-05-13T13:45:00.402Z,35.77
2018-05-13T13:47:28.070Z,35.93
2018-05-13T13:49:56.447Z,35.87
2018-05-13T13:52:24.874Z,36.43
2018-05-13T13:54:52.544Z,36.40
2018-05-13T13:57:20.149Z,36.60
2018-05-13T13:59:47.832Z,36.23
2018-05-13T14:02:15.418Z,37.67
2018-05-13T14:04:43.780Z,37.17
2018-05-13T14:07:12.136Z,37.00
2018-05-13T14:09:40.983Z,37.30
2018-05-13T14:12:08.703Z,36.67
2018-05-13T14:14:36.283Z,38.87
2018-05-13T14:17:03.890Z,39.37
2018-05-13T14:19:31.493Z,38.03
2018-05-13T14:21:59.119Z,38.70
2018-05-13T14:24:26.750Z,37.90
2018-05-13T14:26:54.428Z,36.90
2018-05-13T14:29:22.049Z,38.90
2018-05-13T14:31:49.626Z,38.47
2018-05-13T14:34:17.232Z,38.73
2018-05-13T14:36:45.607Z,39.03
2018-05-13T14:39:13.967Z,37.73
2018-05-13T14:41:41.684Z,38.00
2018-05-13T14:44:10.196Z,38.83
2018-05-13T14:46:37.795Z,38.83
2018-05-13T14:49:05.380Z,36.87
2018-05-13T14:51:32.985Z,38.67
2018-05-13T14:54:02.004Z,39.20
2018-05-13T14:56:29.640Z,40.90
2018-05-13T14:58:58.035Z,40.47
2018-05-13T15:01:25.643Z,40.73
2018-05-13T15:03:55.277Z,39.77
2018-05-13T15:06:22.868Z,40.97
2018-05-13T15:08:50.479Z,40.63
2018-05-13T15:11:18.070Z,39.43
2018-05-13T15:13:45.722Z,41.37
2018-05-13T15:16:14.314Z,40.17
2018-05-13T15:18:42.854Z,41.57
2018-05-13T15:21:11.402Z,40.47
2018-05-13T15:23:39.058Z,40.50
2018-05-13T15:26:08.546Z,41.67
2018-05-13T15:28:36.902Z,42.07
2018-05-13T15:31:04.532Z,40.23
2018-05-13T15:33:32.160Z,40.73
2018-05-13T15:36:00.580Z,38.10
2018-05-13T15:38:28.191Z,37.50
2018-05-13T15:40:56.618Z,38.67
2018-05-13T15:43:25.146Z,39.57
2018-05-13T15:45:52.632Z,37.27
2018-05-13T15:48:20.226Z,38.00
2018-05-13T15:50:48.572Z,36.83
2018-05-13T15:53:16.171Z,35.20
2018-05-13T15:55:44.528Z,35.83
2018-05-13T15:58:12.146Z,35.60
2018-05-13T16:00:39.778Z,35.63
2018-05-13T16:03:07.400Z,34.70
2018-05-13T16:05:35.005Z,32.87
2018-05-13T16:08:02.656Z,35.27
2018-05-13T16:10:30.288Z,34.17
2018-05-13T16:12:58.686Z,32.50
2018-05-13T16:15:26.305Z,34.47
2018-05-13T16:17:53.916Z,32.83
2018-05-13T16:20:22.763Z,33.13
2018-05-13T16:22:52.043Z,34.23
2018-05-13T16:25:19.679Z,33.50
2018-05-13T16:27:47.391Z,32.60
2018-05-13T16:30:15.830Z,33.37
2018-05-13T16:32:43.428Z,31.27
2018-05-13T16:35:11.065Z,33.73
2018-05-13T16:37:38.701Z,33.07
2018-05-13T16:40:06.302Z,32.37
2018-05-13T16:42:33.894Z,31.33
2018-05-13T16:45:03.040Z,32.93
2018-05-13T16:47:30.701Z,32.97
2018-05-13T16:49:58.541Z,32.33
2018-05-13T16:52:26.229Z,32.87
2018-05-13T16:54:53.834Z,33.20
2018-05-13T16:57:21.434Z,33.07
2018-05-13T16:59:49.866Z,33.23
2018-05-13T17:02:17.492Z,33.23
2018-05-13T17:04:45.118Z,33.13
2018-05-13T17:07:12.734Z,34.13
2018-05-13T17:09:40.539Z,33.33
2018-05-13T17:12:08.086Z,33.47
2018-05-13T17:14:35.684Z,32.63
2018-05-13T17:17:03.346Z,32.50
2018-05-13T17:19:31.641Z,34.07
2018-05-13T17:22:01.061Z,32.90
2018-05-13T17:24:28.763Z,31.87
2018-05-13T17:26:56.645Z,32.70
2018-05-13T17:29:24.274Z,32.17
2018-05-13T17:31:52.104Z,32.97
2018-05-13T17:34:19.708Z,31.63
2018-05-13T17:36:47.313Z,31.13
2018-05-13T17:39:14.946Z,30.87
2018-05-13T17:41:43.338Z,32.63
2018-05-13T17:44:11.011Z,30.50
2018-05-13T17:46:38.635Z,31.87
2018-05-13T17:49:06.331Z,31.90
2018-05-13T17:51:34.745Z,31.40
2018-05-13T17:54:02.895Z,30.80
2018-05-13T17:56:30.585Z,31.10
2018-05-13T17:58:58.203Z,32.23
2018-05-13T18:01:26.651Z,31.50
2018-05-13T18:03:54.265Z,31.27
2018-05-13T18:06:21.921Z,32.23
2018-05-13T18:08:49.519Z,32.60
2018-05-13T18:11:17.890Z,31.03
2018-05-13T18:13:46.302Z,31.90
2018-05-13T18:16:13.948Z,31.90
2018-05-13T18:18:42.312Z,31.93
2018-05-13T18:21:10.671Z,31.10
2018-05-13T18:23:38.312Z,31.20
2018-05-13T18:26:05.972Z,31.57
2018-05-13T18:28:33.576Z,31.40
2018-05-13T18:31:02.020Z,32.80
2018-05-13T18:33:29.605Z,31.20
2018-05-13T18:35:57.179Z,32.57
2018-05-13T18:38:24.769Z,31.90
2018-05-13T18:40:52.333Z,33.23
2018-05-13T18:43:20.051Z,33.37
2018-05-13T18:45:47.719Z,33.40
2018-05-13T18:48:15.402Z,33.90
2018-05-13T18:50:43.174Z,33.93
2018-05-13T18:53:10.771Z,35.53
2018-05-13T18:55:38.393Z,35.37
2018-05-13T18:58:06.064Z,34.57
2018-05-13T19:00:33.654Z,34.77
2018-05-13T19:03:01.317Z,37.20
2018-05-13T19:05:28.998Z,37.83
2018-05-13T19:07:57.244Z,37.53
2018-05-13T19:10:24.880Z,37.33
2018-05-13T19:12:52.509Z,38.57
2018-05-13T19:15:20.133Z,38.50
2018-05-13T19:17:47.774Z,39.30
2018-05-13T19:20:16.178Z,40.20
2018-05-13T19:22:43.815Z,41.23
2018-05-13T19:25:12.221Z,39.37
2018-05-13T19:27:39.908Z,40.67
2018-05-13T19:30:07.521Z,42.07
2018-05-13T19:32:38.637Z,41.03
2018-05-13T19:35:06.352Z,42.80
2018-05-13T19:37:34.812Z,42.37
2018-05-13T19:40:03.288Z,44.10
2018-05-13T19:42:31.002Z,43.43
2018-05-13T19:44:58.762Z,43.50
2018-05-13T19:47:26.382Z,44.00
2018-05-13T19:49:54.068Z,43.27
2018-05-13T19:52:21.736Z,43.47
2018-05-13T19:54:50.368Z,48.47
2018-05-13T19:57:18.096Z,43.40
2018-05-13T19:59:47.431Z,42.50
2018-05-13T20:02:15.059Z,43.20
2018-05-13T20:04:42.767Z,43.43
2018-05-13T20:07:10.384Z,43.50
2018-05-13T20:09:38.049Z,43.90
2018-05-13T20:12:05.735Z,42.80
2018-05-13T20:14:33.291Z,41.57
2018-05-13T20:17:00.974Z,44.23
2018-05-13T20:19:29.349Z,42.30
2018-05-13T20:21:57.765Z,43.57
2018-05-13T20:24:25.390Z,43.63
2018-05-13T20:26:52.998Z,43.13
2018-05-13T20:29:20.593Z,43.90
2018-05-13T20:31:48.240Z,43.23
2018-05-13T20:34:15.836Z,42.77
2018-05-13T20:36:43.443Z,43.93
2018-05-13T20:39:11.800Z,42.37
2018-05-13T20:41:39.688Z,44.63
2018-05-13T20:44:08.065Z,44.47
2018-05-13T20:46:35.664Z,44.00
2018-05-13T20:49:03.397Z,45.13
2018-05-13T20:51:31.001Z,45.77
2018-05-13T20:53:58.659Z,46.30
2018-05-13T20:56:26.271Z,47.17
2018-05-13T20:58:53.849Z,46.50
2018-05-13T21:01:22.230Z,45.63
2018-05-13T21:03:50.789Z,45.93
2018-05-13T21:06:18.362Z,46.13
2018-05-13T21:08:46.017Z,46.53
2018-05-13T21:11:13.646Z,45.57
2018-05-13T21:13:42.086Z,48.40
2018-05-13T21:16:09.800Z,47.23
2018-05-13T21:18:37.374Z,47.80
2018-05-13T21:21:04.980Z,47.07
2018-05-13T21:23:32.563Z,46.63
2018-05-13T21:26:00.157Z,47.93
2018-05-13T21:28:27.799Z,46.47
2018-05-13T21:30:55.383Z,47.57
2018-05-13T21:33:23.793Z,46.90
2018-05-13T21:35:51.394Z,46.70
2018-05-13T21:38:19.001Z,47.23
2018-05-13T21:40:47.342Z,46.93
2018-05-13T21:43:14.967Z,47.73
2018-05-13T21:45:42.793Z,46.93
2018-05-13T21:48:10.421Z,45.80
2018-05-13T21:50:38.080Z,50.90
2018-05-13T21:53:05.729Z,49.27
2018-05-13T21:55:34.084Z,46.80
2018-05-13T21:58:01.798Z,48.40
2018-05-13T22:00:29.394Z,47.77
2018-05-13T22:02:57.018Z,50.10
2018-05-13T22:05:24.616Z,45.70
2018-05-13T22:07:52.271Z,43.70
2018-05-13T22:10:19.872Z,42.40
2018-05-13T22:12:47.501Z,42.93
2018-05-13T22:15:15.112Z,41.90
2018-05-13T22:17:43.480Z,40.83
2018-05-13T22:20:11.094Z,41.50
2018-05-13T22:22:38.716Z,40.83
2018-05-13T22:25:06.310Z,40.03
2018-05-13T22:27:34.661Z,41.23
2018-05-13T22:30:02.265Z,42.27
2018-05-13T22:32:30.197Z,42.03
2018-05-13T22:34:57.777Z,41.17
2018-05-13T22:37:25.388Z,42.60
2018-05-13T22:39:52.970Z,41.03
2018-05-13T22:42:20.588Z,41.73
2018-05-13T22:44:48.935Z,42.33
2018-05-13T22:47:16.538Z,42.53
2018-05-13T22:49:44.904Z,41.83
2018-05-13T22:52:12.512Z,40.30
2018-05-13T22:54:40.117Z,42.30
2018-05-13T22:57:07.726Z,40.43
2018-05-13T22:59:35.320Z,40.13
2018-05-13T23:02:03.642Z,40.57
2018-05-13T23:04:31.237Z,41.57
2018-05-13T23:06:58.823Z,41.03
2018-05-13T23:09:26.408Z,40.90
2018-05-13T23:11:53.997Z,40.23
2018-05-13T23:14:21.651Z,39.13
2018-05-13T23:16:50.110Z,39.57
2018-05-13T23:19:17.795Z,40.90
2018-05-13T23:21:45.399Z,39.90
2018-05-13T23:24:13.753Z,39.50
2018-05-13T23:26:41.362Z,37.87
2018-05-13T23:29:09.726Z,39.23
2018-05-13T23:31:38.142Z,40.20
2018-05-13T23:34:05.735Z,38.43
2018-05-13T23:36:33.338Z,38.63
2018-05-13T23:39:00.962Z,39.97
2018-05-13T23:41:28.573Z,40.10
2018-05-13T23:43:56.961Z,41.43
2018-05-13T23:46:25.325Z,41.63
2018-05-13T23:48:52.931Z,40.50
2018-05-13T23:51:20.530Z,40.97
2018-05-13T23:53:48.173Z,40.87
2018-05-13T23:56:15.760Z,40.30
2018-05-13T23:58:43.363Z,38.47
